Stations météo

réclame
Mon MeteoGroup
Lons-Le-Saunier, France (7390): Température de l'air & dewpoint: 16.04.2019 17:00:00 - 22.04.2019 17:00:00 (CEST)Lons-Le-Saunier, France (7390): Vitesse du vent & gusts: 16.04.2019 17:00:00 - 22.04.2019 17:00:00 (CEST)Lons-Le-Saunier, France (7390): Direction du vent: 16.04.2019 17:00:00 - 22.04.2019 17:00:00 (CEST)Lons-Le-Saunier, France (7390): Quantités de précipitations: 16.04.2019 17:00:00 - 22.04.2019 17:00:00 (CEST)
Date & Time tt [°C] td [°C] ff [km/h] ff [knt] fx [km/h] fx [knt] dd rr [mm]
22.04.2019 17:00:00 - - - - - - - -
22.04.2019 16:00:00 23,7 8,1 15 8 28 15 NW 0,0
22.04.2019 15:00:00 22,9 10,0 13 7 24 13 NW 0,0
22.04.2019 14:00:00 22,7 11,7 13 7 22 12 NW -
22.04.2019 13:00:00 21,3 9,5 9 5 22 12 NW 0,0
22.04.2019 12:00:00 20,0 10,1 11 6 21 11 NNW 0,0
22.04.2019 11:00:00 18,1 9,7 11 6 16 9 NNW 0,0
22.04.2019 10:00:00 17,4 7,2 9 5 16 9 NNE 0,0
22.04.2019 09:00:00 16,0 8,5 8 4 13 7 E 0,0
22.04.2019 08:00:00 13,0 7,7 8 4 21 11 NE -
22.04.2019 07:00:00 11,8 7,9 5 3 16 9 E 0,0
22.04.2019 06:00:00 11,8 8,8 9 5 18 10 E 0,2
22.04.2019 05:00:00 12,8 8,1 11 6 16 9 S 0,0
22.04.2019 04:00:00 11,8 7,9 9 5 15 8 ENE 0,0
22.04.2019 03:00:00 12,2 7,3 11 6 15 8 SE 0,0
22.04.2019 02:00:00 12,7 6,9 5 3 11 6 SE -
22.04.2019 01:00:00 13,7 7,2 8 4 9 5 ESE 0,0
22.04.2019 00:00:00 14,1 7,4 5 3 9 5 E 0,0
21.04.2019 23:00:00 15,1 7,6 8 4 13 7 ESE 0,0
21.04.2019 22:00:00 15,2 8,2 5 3 9 5 E 0,0
21.04.2019 21:00:00 17,0 8,2 5 3 9 5 SE 0,0
21.04.2019 20:00:00 18,4 7,8 4 2 9 5 NNW -
21.04.2019 19:00:00 19,0 8,6 4 2 13 7 NNE 0,0
21.04.2019 18:00:00 19,1 9,0 9 5 15 8 NW 0,0
21.04.2019 17:00:00 19,6 9,2 5 3 15 8 W 0,0
21.04.2019 16:00:00 20,0 9,0 11 6 18 10 WSW 0,0
21.04.2019 15:00:00 19,7 10,7 9 5 18 10 WSW 0,0
21.04.2019 14:00:00 17,9 10,0 2 1 11 6 SW -
21.04.2019 13:00:00 15,6 9,9 9 5 21 11 SW 0,0
21.04.2019 12:00:00 16,0 8,7 8 4 16 9 SW 0,0
21.04.2019 11:00:00 15,3 8,1 9 5 15 8 WSW 0,0
21.04.2019 10:00:00 14,2 8,2 4 2 8 4 SSW 0,0
21.04.2019 09:00:00 12,7 7,4 2 1 8 4 W 0,0
21.04.2019 08:00:00 12,0 5,6 4 2 11 6 S -
21.04.2019 07:00:00 11,8 3,8 8 4 13 7 SE 0,0
21.04.2019 06:00:00 11,9 5,3 9 5 21 11 SSW 0,0
21.04.2019 05:00:00 11,7 4,2 13 7 18 10 S 0,0
21.04.2019 04:00:00 12,9 3,5 11 6 16 9 ESE 0,0
21.04.2019 03:00:00 13,9 3,4 9 5 13 7 ESE 0,0
21.04.2019 02:00:00 17,1 1,9 5 3 11 6 SE -
21.04.2019 01:00:00 17,0 2,2 4 2 24 13 E 0,0
21.04.2019 00:00:00 15,0 3,2 11 6 16 9 NE 0,0
20.04.2019 23:00:00 15,9 5,8 8 4 11 6 E 0,0
20.04.2019 22:00:00 16,9 7,3 9 5 13 7 ESE 0,0
20.04.2019 21:00:00 19,1 7,8 8 4 11 6 SE 0,0
20.04.2019 20:00:00 21,1 7,3 8 4 11 6 SW -
20.04.2019 19:00:00 22,6 6,4 5 3 22 12 WNW 0,0
20.04.2019 18:00:00 22,8 8,9 11 6 22 12 WNW 0,0
20.04.2019 17:00:00 22,7 9,5 13 7 26 14 WNW 0,0
20.04.2019 16:00:00 21,6 8,5 8 4 22 12 W 0,0
20.04.2019 15:00:00 22,2 9,4 9 5 18 10 N 0,0
20.04.2019 14:00:00 21,2 8,5 4 2 18 10 NW -
20.04.2019 13:00:00 20,1 9,0 9 5 21 11 NNW 0,0
20.04.2019 12:00:00 19,6 9,8 4 2 13 7 SSW 0,0
20.04.2019 11:00:00 18,2 9,5 4 2 15 8 WNW 0,0
20.04.2019 10:00:00 15,6 9,3 11 6 18 10 SW 0,0
20.04.2019 09:00:00 14,7 7,3 5 3 18 10 ESE 0,0
20.04.2019 08:00:00 11,9 6,2 8 4 18 10 ESE -
20.04.2019 07:00:00 10,9 5,6 8 4 15 8 ESE 0,0
20.04.2019 06:00:00 11,2 5,7 9 5 15 8 SE 0,0
20.04.2019 05:00:00 12,1 5,5 11 6 18 10 ESE 0,0
20.04.2019 04:00:00 12,4 5,5 11 6 16 9 ESE 0,0
20.04.2019 03:00:00 13,0 5,9 9 5 21 11 ESE 0,0
20.04.2019 02:00:00 14,0 5,9 11 6 21 11 E -
20.04.2019 01:00:00 14,3 5,9 9 5 28 15 ESE 0,0
20.04.2019 00:00:00 15,3 6,3 13 7 24 13 E 0,0
19.04.2019 23:00:00 16,1 7,0 8 4 24 13 E 0,0
19.04.2019 22:00:00 16,4 6,2 15 8 26 14 E 0,0
19.04.2019 21:00:00 16,5 8,2 18 10 35 19 NE 0,0
19.04.2019 20:00:00 19,5 7,6 8 4 18 10 NE -
19.04.2019 19:00:00 20,9 7,5 8 4 37 20 E 0,0
19.04.2019 18:00:00 22,1 8,9 16 9 31 17 E 0,0
19.04.2019 17:00:00 23,0 7,5 5 3 18 10 NW 0,0
19.04.2019 16:00:00 22,4 7,8 9 5 26 14 NNW 0,0
19.04.2019 15:00:00 22,3 8,0 8 4 16 9 W 0,0
19.04.2019 14:00:00 21,7 9,6 8 4 18 10 SW -
19.04.2019 13:00:00 20,7 5,9 8 4 18 10 SW 0,0
19.04.2019 12:00:00 19,9 8,2 11 6 21 11 SW 0,0
19.04.2019 11:00:00 19,0 7,7 5 3 16 9 WSW 0,0
19.04.2019 10:00:00 18,4 4,9 5 3 11 6 SSW 0,0
19.04.2019 09:00:00 15,8 7,5 8 4 13 7 SE 0,0
19.04.2019 08:00:00 13,4 6,7 9 5 15 8 ESE -
19.04.2019 07:00:00 13,1 5,7 11 6 16 9 SE 0,0
19.04.2019 06:00:00 13,4 5,3 8 4 15 8 ESE 0,0
19.04.2019 05:00:00 13,7 5,1 9 5 15 8 SE 0,0
19.04.2019 04:00:00 13,9 5,0 11 6 16 9 SE 0,0
19.04.2019 03:00:00 14,8 5,0 11 6 18 10 S 0,0
19.04.2019 02:00:00 15,0 5,5 9 5 22 12 SE -
19.04.2019 01:00:00 14,0 7,1 11 6 18 10 SE 0,0
19.04.2019 00:00:00 14,4 8,6 9 5 11 6 ESE 0,0
18.04.2019 23:00:00 15,1 9,5 9 5 13 7 SE 0,0
18.04.2019 22:00:00 16,0 9,9 8 4 13 7 SE 0,0
18.04.2019 21:00:00 18,2 9,3 4 2 9 5 SW 0,0
18.04.2019 20:00:00 19,2 9,4 4 2 13 7 W -
18.04.2019 19:00:00 20,4 10,8 8 4 15 8 W 0,0
18.04.2019 18:00:00 21,2 10,4 8 4 13 7 SW 0,0
18.04.2019 17:00:00 21,1 10,6 4 2 15 8 N 0,0
18.04.2019 16:00:00 20,9 10,4 5 3 18 10 WSW 0,0
18.04.2019 15:00:00 20,5 10,9 8 4 18 10 NNW 0,0
18.04.2019 14:00:00 20,1 9,6 9 5 18 10 WSW -
18.04.2019 13:00:00 19,3 9,5 8 4 16 9 NE 0,0
18.04.2019 12:00:00 18,2 9,0 4 2 13 7 N 0,0
18.04.2019 11:00:00 17,2 8,3 4 2 11 6 W 0,0
18.04.2019 10:00:00 16,5 8,5 0 0 9 5 N 0,0
18.04.2019 09:00:00 13,6 7,4 5 3 13 7 ESE 0,0
18.04.2019 08:00:00 10,6 6,9 8 4 9 5 E -
18.04.2019 07:00:00 10,2 6,5 4 2 13 7 WNW 0,0
18.04.2019 06:00:00 11,3 6,6 9 5 15 8 ESE 0,0
18.04.2019 05:00:00 11,2 6,7 11 6 13 7 ESE 0,0
18.04.2019 04:00:00 11,9 6,4 9 5 15 8 ESE 0,0
18.04.2019 03:00:00 11,9 6,8 9 5 13 7 SE 0,0
18.04.2019 02:00:00 12,8 6,8 8 4 13 7 SE -
18.04.2019 01:00:00 13,0 7,2 9 5 24 13 SE 0,0
18.04.2019 00:00:00 12,2 7,3 11 6 15 8 ESE 0,0
17.04.2019 23:00:00 12,8 7,7 9 5 15 8 ESE 0,0
17.04.2019 22:00:00 14,4 7,9 8 4 9 5 SE 0,0
17.04.2019 21:00:00 15,9 7,6 5 3 13 7 NNW 0,0
17.04.2019 20:00:00 16,7 7,9 9 5 18 10 NW -
17.04.2019 19:00:00 17,9 8,7 11 6 21 11 NW 0,0
17.04.2019 18:00:00 19,0 8,6 13 7 18 10 NW 0,0
17.04.2019 17:00:00 19,2 9,7 9 5 18 10 NNW 0,0
17.04.2019 16:00:00 18,4 9,5 11 6 18 10 NNW 0,0
17.04.2019 15:00:00 18,2 9,3 8 4 26 14 NW 0,0
17.04.2019 14:00:00 17,6 9,0 9 5 24 13 NNW -
17.04.2019 13:00:00 17,1 9,3 5 3 15 8 NNE 0,0
17.04.2019 12:00:00 16,2 8,9 4 2 15 8 NW 0,0
17.04.2019 11:00:00 15,0 9,4 0 0 11 6 N 0,0
17.04.2019 10:00:00 14,2 8,6 2 1 9 5 NNE 0,0
17.04.2019 09:00:00 11,7 7,6 4 2 9 5 ESE 0,0
17.04.2019 08:00:00 8,7 6,7 5 3 13 7 ESE -
17.04.2019 07:00:00 7,5 6,0 9 5 13 7 ESE 0,0
17.04.2019 06:00:00 8,3 6,4 8 4 9 5 ESE 0,0
17.04.2019 05:00:00 9,1 6,7 8 4 9 5 SE 0,0
17.04.2019 04:00:00 9,5 7,3 8 4 11 6 SE 0,0
17.04.2019 03:00:00 9,6 8,2 9 5 13 7 SE 0,2
17.04.2019 02:00:00 10,2 8,0 8 4 11 6 SSE -
17.04.2019 01:00:00 10,1 8,0 5 3 16 9 SE 0,0
17.04.2019 00:00:00 10,1 7,7 8 4 13 7 SSE 0,0
16.04.2019 23:00:00 10,2 7,8 4 2 13 7 S 0,4
16.04.2019 22:00:00 10,9 7,4 8 4 11 6 S 0,0
16.04.2019 21:00:00 11,2 7,5 5 3 15 8 S 0,0
16.04.2019 20:00:00 11,2 8,6 5 3 18 10 S -
16.04.2019 19:00:00 10,6 9,0 11 6 26 14 SE 0,4
16.04.2019 18:00:00 11,3 8,0 16 9 29 16 S 0,0
16.04.2019 17:00:00 10,6 8,7 16 9 34 18 S 0,0

tt = Température de l'air
td = dewpoint
ff = Vitesse du vent
fx = gusts
dd = Direction du vent
rr = Quantités de précipitations

stations d'obs. à proximité